Time;durP1;ratioP1;P1;durP2;ratioP2;P2;SDS_P1;SDS_P2;PMS_P1;PMS_P2;Temp;Humidity;BMP_temperature;BMP_pressure;BME280_temperature;BME280_humidity;BME280_pressure;Samples;Min_cycle;Max_cycle;Signal;HPM_P1;HPM_P2
2022/03/21 00:01:56;;;;;;;;;59.25;46.75;;;;;;;;5076520;28;45413;-78
2022/03/21 00:04:22;;;;;;;;;61.50;47.75;;;;;;;;5076938;28;45528;-77
2022/03/21 00:06:47;;;;;;;;;59.00;45.75;;;;;;;;5076284;28;45440;-76
2022/03/21 00:09:13;;;;;;;;;57.50;46.25;;;;;;;;5076668;28;45336;-78
2022/03/21 00:11:38;;;;;;;;;58.25;48.00;;;;;;;;5057934;28;46045;-77
2022/03/21 00:14:04;;;;;;;;;62.75;47.25;;;;;;;;5075458;28;45512;-76
2022/03/21 00:16:30;;;;;;;;;60.00;46.50;;;;;;;;5077574;28;45500;-76
2022/03/21 00:18:55;;;;;;;;;63.25;49.50;;;;;;;;5077499;28;45374;-75
2022/03/21 00:21:20;;;;;;;;;57.25;46.75;;;;;;;;5076499;28;46431;-77
2022/03/21 00:23:47;;;;;;;;;60.75;49.00;;;;;;;;5076635;28;45421;-78
2022/03/21 00:26:12;;;;;;;;;64.25;48.00;;;;;;;;5076740;28;45448;-77
2022/03/21 00:28:37;;;;;;;;;59.75;46.75;;;;;;;;5076946;28;45453;-77
2022/03/21 00:31:03;;;;;;;;;63.75;48.75;;;;;;;;5076751;28;45374;-77
2022/03/21 00:33:28;;;;;;;;;56.50;45.50;;;;;;;;5075563;28;45438;-77
2022/03/21 00:35:53;;;;;;;;;63.50;47.25;;;;;;;;5076003;28;46744;-77
2022/03/21 00:38:19;;;;;;;;;60.00;47.00;;;;;;;;5076392;28;45462;-77
2022/03/21 00:40:45;;;;;;;;;65.25;50.25;;;;;;;;5076638;28;47260;-77
2022/03/21 00:43:11;;;;;;;;;64.00;50.00;;;;;;;;5077196;28;45453;-78
2022/03/21 00:45:38;;;;;;;;;63.75;50.25;;;;;;;;5055682;28;45523;-77
2022/03/21 00:48:04;;;;;;;;;64.50;50.25;;;;;;;;5075741;28;45702;-76
2022/03/21 00:50:29;;;;;;;;;60.75;47.25;;;;;;;;5076142;28;45429;-78
2022/03/21 00:52:56;;;;;;;;;58.75;46.00;;;;;;;;5076231;28;45468;-77
2022/03/21 00:55:22;;;;;;;;;63.25;48.25;;;;;;;;5076662;28;45249;-79
2022/03/21 00:57:48;;;;;;;;;63.00;48.50;;;;;;;;5075905;28;45448;-77
2022/03/21 01:00:15;;;;;;;;;61.50;49.50;;;;;;;;5075467;28;46830;-78
2022/03/21 01:02:40;;;;;;;;;56.75;45.50;;;;;;;;5075248;28;45296;-78
2022/03/21 01:05:07;;;;;;;;;60.75;46.50;;;;;;;;5075911;28;45409;-77
2022/03/21 01:07:32;;;;;;;;;61.25;47.75;;;;;;;;5076208;28;45456;-78
2022/03/21 01:09:57;;;;;;;;;60.00;47.75;;;;;;;;5076145;28;46016;-76
2022/03/21 01:12:23;;;;;;;;;62.25;48.75;;;;;;;;5075632;28;45447;-78
2022/03/21 01:14:48;;;;;;;;;60.00;47.50;;;;;;;;5075898;28;45305;-77
2022/03/21 01:17:16;;;;;;;;;62.75;50.00;;;;;;;;5075426;28;45526;-79
2022/03/21 01:19:41;;;;;;;;;57.50;46.00;;;;;;;;5075721;28;45413;-77
2022/03/21 01:22:06;;;;;;;;;60.00;47.50;;;;;;;;5075892;28;45347;-76
2022/03/21 01:24:32;;;;;;;;;58.00;45.50;;;;;;;;5075077;28;45304;-76
2022/03/21 01:26:57;;;;;;;;;62.50;47.75;;;;;;;;5075588;28;45455;-76
2022/03/21 01:29:23;;;;;;;;;60.25;46.75;;;;;;;;5075439;28;46185;-77
2022/03/21 01:31:48;;;;;;;;;59.00;46.75;;;;;;;;5075299;28;45319;-76
2022/03/21 01:34:16;;;;;;;;;56.25;43.00;;;;;;;;5076352;28;45298;-77
2022/03/21 01:36:41;;;;;;;;;59.00;46.00;;;;;;;;5075220;28;45497;-78
2022/03/21 01:39:07;;;;;;;;;59.00;47.00;;;;;;;;5075205;28;46440;-77
2022/03/21 01:41:32;;;;;;;;;58.00;44.75;;;;;;;;5074998;28;45341;-78
2022/03/21 01:43:58;;;;;;;;;60.25;46.25;;;;;;;;5075627;28;47689;-77
2022/03/21 01:46:24;;;;;;;;;61.50;48.00;;;;;;;;5071113;28;45537;-77
2022/03/21 01:48:49;;;;;;;;;60.50;46.00;;;;;;;;5074811;28;46946;-78
2022/03/21 01:51:15;;;;;;;;;58.00;45.00;;;;;;;;5075159;28;45463;-77
2022/03/21 01:56:24;;;;;;;;;62.50;48.75;;;;;;;;5075360;28;45406;-77
2022/03/21 01:58:49;;;;;;;;;72.67;58.33;;;;;;;;5074874;28;46295;-78
2022/03/21 02:01:18;;;;;;;;;75.67;60.33;;;;;;;;5075114;28;45353;-77
2022/03/21 02:03:43;;;;;;;;;82.33;68.00;;;;;;;;5075023;28;45338;-77
2022/03/21 02:06:08;;;;;;;;;84.00;72.33;;;;;;;;5074917;28;45400;-78
2022/03/21 02:08:33;;;;;;;;;80.00;68.00;;;;;;;;5074831;28;46317;-78
2022/03/21 02:11:00;;;;;;;;;69.25;52.75;;;;;;;;5075172;28;45355;-78
2022/03/21 02:13:26;;;;;;;;;67.50;53.25;;;;;;;;5075872;28;45414;-77
2022/03/21 02:15:52;;;;;;;;;63.75;49.25;;;;;;;;5074451;28;45805;-77
2022/03/21 02:18:17;;;;;;;;;62.25;48.50;;;;;;;;5074379;28;46211;-78
2022/03/21 02:20:43;;;;;;;;;56.75;45.25;;;;;;;;5074329;28;45375;-78
2022/03/21 02:23:38;;;;;;;;;51.75;41.25;;;;;;;;5074981;28;45377;-78
2022/03/21 02:26:06;;;;;;;;;57.75;47.00;;;;;;;;5059334;27;45485;-76
2022/03/21 02:28:31;;;;;;;;;55.75;43.00;;;;;;;;5074268;28;46196;-77
2022/03/21 02:30:57;;;;;;;;;58.25;47.75;;;;;;;;5074834;28;45305;-77
2022/03/21 02:33:23;;;;;;;;;60.50;46.50;;;;;;;;5074422;28;45460;-77
2022/03/21 02:35:49;;;;;;;;;60.00;46.50;;;;;;;;5073588;28;45264;-78
2022/03/21 02:38:15;;;;;;;;;60.50;43.25;;;;;;;;5074461;28;47133;-77
2022/03/21 02:40:40;;;;;;;;;59.00;45.25;;;;;;;;5074637;28;46848;-75
2022/03/21 02:43:06;;;;;;;;;57.00;46.00;;;;;;;;5074491;28;45444;-78
2022/03/21 02:45:31;;;;;;;;;60.00;47.75;;;;;;;;5074329;28;45501;-77
2022/03/21 02:47:56;;;;;;;;;54.00;44.00;;;;;;;;5073795;28;46399;-77
2022/03/21 02:50:43;;;;;;;;;60.00;46.25;;;;;;;;5074217;28;45536;-78
2022/03/21 02:53:09;;;;;;;;;61.00;47.25;;;;;;;;5049462;27;45538;-76
2022/03/21 02:55:34;;;;;;;;;53.00;43.50;;;;;;;;5074507;28;45410;-76
2022/03/21 02:58:00;;;;;;;;;57.25;45.00;;;;;;;;5074055;28;47291;-76
2022/03/21 03:00:25;;;;;;;;;59.00;47.00;;;;;;;;5073928;28;45366;-76
2022/03/21 03:02:51;;;;;;;;;60.00;45.75;;;;;;;;5074265;28;45346;-78
2022/03/21 03:05:16;;;;;;;;;60.25;44.75;;;;;;;;5074132;28;45470;-77
2022/03/21 03:07:41;;;;;;;;;61.25;45.25;;;;;;;;5074432;28;45545;-77
2022/03/21 03:10:07;;;;;;;;;59.00;45.75;;;;;;;;5074638;28;45364;-77
2022/03/21 03:12:32;;;;;;;;;56.75;45.50;;;;;;;;5073729;28;45534;-77
2022/03/21 03:14:57;;;;;;;;;58.50;46.00;;;;;;;;5074332;28;45492;-77
2022/03/21 03:17:22;;;;;;;;;55.50;45.25;;;;;;;;5074085;28;46177;-77
2022/03/21 03:19:48;;;;;;;;;55.50;44.50;;;;;;;;5073699;28;45260;-78
2022/03/21 03:22:15;;;;;;;;;57.00;46.00;;;;;;;;5074785;28;45541;-78
2022/03/21 03:24:40;;;;;;;;;54.75;43.50;;;;;;;;5074108;28;45427;-77
2022/03/21 03:27:05;;;;;;;;;57.50;46.75;;;;;;;;5073393;28;45934;-77
2022/03/21 03:29:31;;;;;;;;;58.50;46.50;;;;;;;;5055469;28;45454;-77
2022/03/21 03:32:00;;;;;;;;;61.25;48.75;;;;;;;;5074509;28;45782;-75
2022/03/21 03:34:25;;;;;;;;;43.25;36.25;;;;;;;;5070882;28;45422;-78
2022/03/21 03:36:53;;;;;;;;;57.00;46.75;;;;;;;;5073463;28;46712;-78
2022/03/21 03:39:18;;;;;;;;;56.00;44.50;;;;;;;;5073788;28;45435;-77
2022/03/21 03:41:43;;;;;;;;;58.50;46.25;;;;;;;;5073793;28;45563;-77
2022/03/21 03:44:10;;;;;;;;;53.75;43.25;;;;;;;;5073765;28;45411;-75
2022/03/21 03:46:35;;;;;;;;;58.00;45.25;;;;;;;;5073883;28;46652;-77
2022/03/21 03:49:00;;;;;;;;;57.25;45.25;;;;;;;;5077470;28;45361;-77
2022/03/21 03:51:26;;;;;;;;;54.75;44.00;;;;;;;;5077028;28;45252;-77
2022/03/21 03:53:51;;;;;;;;;61.50;46.25;;;;;;;;5079400;28;45505;-76
2022/03/21 03:56:16;;;;;;;;;56.50;45.50;;;;;;;;5078378;28;45446;-77
2022/03/21 03:58:45;;;;;;;;;58.00;43.75;;;;;;;;5060254;28;45387;-78
2022/03/21 04:01:10;;;;;;;;;54.00;43.25;;;;;;;;5060301;28;45403;-78
2022/03/21 04:03:44;;;;;;;;;56.50;43.75;;;;;;;;5078099;28;45485;-78
2022/03/21 04:06:10;;;;;;;;;52.25;42.25;;;;;;;;5078375;28;46094;-78
2022/03/21 04:08:36;;;;;;;;;55.50;44.00;;;;;;;;5077853;28;45593;-79
2022/03/21 04:11:01;;;;;;;;;53.75;42.00;;;;;;;;5078158;28;45608;-78
2022/03/21 04:13:27;;;;;;;;;60.50;46.00;;;;;;;;5077984;28;45220;-77
2022/03/21 04:15:52;;;;;;;;;56.75;45.75;;;;;;;;5077595;28;46100;-79
2022/03/21 04:18:18;;;;;;;;;58.00;46.00;;;;;;;;5059537;28;45516;-77
2022/03/21 04:20:43;;;;;;;;;55.00;43.75;;;;;;;;5077833;28;45400;-76
2022/03/21 04:23:09;;;;;;;;;54.50;43.75;;;;;;;;5077370;28;45359;-79
2022/03/21 04:25:35;;;;;;;;;58.50;45.75;;;;;;;;5077566;28;45582;-78
2022/03/21 04:28:06;;;;;;;;;59.00;44.50;;;;;;;;5077755;28;45342;-79
2022/03/21 04:30:31;;;;;;;;;59.75;47.00;;;;;;;;5077131;28;45406;-77
2022/03/21 04:32:59;;;;;;;;;32.00;21.75;;;;;;;;5057646;28;45327;-77
2022/03/21 04:35:24;;;;;;;;;58.50;46.50;;;;;;;;5077240;28;46080;-78
2022/03/21 04:37:51;;;;;;;;;52.25;42.00;;;;;;;;5077663;28;45232;-76
2022/03/21 04:40:17;;;;;;;;;62.50;48.25;;;;;;;;5077616;28;45623;-78
2022/03/21 04:42:42;;;;;;;;;61.50;47.75;;;;;;;;5077385;28;45385;-78
2022/03/21 04:45:08;;;;;;;;;54.75;44.50;;;;;;;;5077600;28;46016;-77
2022/03/21 04:47:34;;;;;;;;;57.00;43.75;;;;;;;;5077097;28;45583;-78
2022/03/21 04:49:59;;;;;;;;;47.25;38.25;;;;;;;;5077348;28;45346;-77
2022/03/21 04:52:25;;;;;;;;;60.75;47.25;;;;;;;;5077778;28;45732;-79
2022/03/21 04:54:50;;;;;;;;;56.25;44.50;;;;;;;;5075985;28;46487;-76
2022/03/21 04:57:19;;;;;;;;;59.50;46.00;;;;;;;;5075937;28;45422;-78
2022/03/21 04:59:44;;;;;;;;;55.25;43.75;;;;;;;;5075041;28;45579;-78
2022/03/21 05:02:09;;;;;;;;;56.75;45.25;;;;;;;;5075980;28;45530;-76
2022/03/21 05:04:34;;;;;;;;;55.00;42.75;;;;;;;;5058676;28;46499;-78
2022/03/21 05:07:00;;;;;;;;;57.50;45.75;;;;;;;;5076283;28;45317;-77
2022/03/21 05:09:25;;;;;;;;;50.00;41.50;;;;;;;;5074463;28;45932;-77
2022/03/21 05:11:50;;;;;;;;;52.75;41.50;;;;;;;;5075690;28;45473;-78
2022/03/21 05:14:18;;;;;;;;;51.50;43.25;;;;;;;;5075171;28;46414;-78
2022/03/21 05:16:44;;;;;;;;;65.75;48.50;;;;;;;;5075436;28;45331;-78
2022/03/21 05:19:12;;;;;;;;;57.50;45.50;;;;;;;;5075733;28;45337;-78
2022/03/21 05:21:37;;;;;;;;;60.00;46.75;;;;;;;;5075266;28;46408;-77
2022/03/21 05:32:14;;;;;;;;;65.33;52.33;;;;;;;;5075503;28;45414;-76
2022/03/21 05:37:23;;;;;;;;;59.50;45.50;;;;;;;;5075309;28;45446;-77
2022/03/21 05:42:32;;;;;;;;;56.00;43.75;;;;;;;;5074723;28;45354;-77
2022/03/21 05:44:57;;;;;;;;;54.75;43.75;;;;;;;;5075812;28;46084;-77
2022/03/21 05:47:23;;;;;;;;;60.00;46.75;;;;;;;;5074885;28;45601;-76
2022/03/21 05:49:48;;;;;;;;;56.50;45.75;;;;;;;;5074356;28;45517;-77
2022/03/21 05:52:13;;;;;;;;;57.75;44.75;;;;;;;;5074682;28;45406;-78
2022/03/21 05:54:41;;;;;;;;;59.50;46.75;;;;;;;;5073790;28;46735;-77
2022/03/21 05:57:06;;;;;;;;;63.50;47.25;;;;;;;;5073968;28;45362;-76
2022/03/21 06:02:16;;;;;;;;;65.50;51.75;;;;;;;;5074616;27;45408;-77
2022/03/21 06:04:42;;;;;;;;;61.75;46.00;;;;;;;;5074519;28;46617;-75
2022/03/21 06:07:07;;;;;;;;;58.25;46.25;;;;;;;;5072079;28;45389;-76
2022/03/21 06:09:32;;;;;;;;;59.00;46.25;;;;;;;;5075077;28;45503;-77
2022/03/21 06:11:58;;;;;;;;;63.50;48.50;;;;;;;;5073074;28;46289;-77
2022/03/21 06:14:23;;;;;;;;;59.25;45.25;;;;;;;;5073762;28;45284;-76
2022/03/21 06:16:48;;;;;;;;;62.00;48.00;;;;;;;;5074117;28;45557;-76
2022/03/21 06:19:14;;;;;;;;;59.50;47.75;;;;;;;;5074404;28;45320;-76
2022/03/21 06:21:39;;;;;;;;;55.25;45.00;;;;;;;;5073745;28;45459;-77
2022/03/21 06:24:05;;;;;;;;;62.50;48.75;;;;;;;;5073112;28;46956;-77
2022/03/21 06:26:30;;;;;;;;;71.67;56.00;;;;;;;;5073529;28;45382;-79
2022/03/21 06:28:55;;;;;;;;;62.00;49.00;;;;;;;;5074158;28;45402;-77
2022/03/21 06:31:20;;;;;;;;;60.25;48.50;;;;;;;;5074354;28;45372;-74
2022/03/21 06:33:46;;;;;;;;;66.50;49.25;;;;;;;;5073666;28;45353;-76
2022/03/21 06:36:11;;;;;;;;;60.25;47.75;;;;;;;;5069848;28;45831;-77
2022/03/21 06:38:37;;;;;;;;;61.75;48.75;;;;;;;;5073498;28;45311;-78
2022/03/21 06:41:03;;;;;;;;;59.75;48.00;;;;;;;;5073156;28;45364;-78
2022/03/21 06:43:28;;;;;;;;;58.75;47.75;;;;;;;;5073047;28;46301;-77
2022/03/21 06:45:54;;;;;;;;;62.75;48.75;;;;;;;;5074315;28;45390;-77
2022/03/21 06:48:20;;;;;;;;;64.00;50.00;;;;;;;;5073238;28;45613;-77
2022/03/21 06:50:46;;;;;;;;;63.25;48.25;;;;;;;;5072813;28;45490;-76
2022/03/21 06:53:13;;;;;;;;;64.00;51.00;;;;;;;;5072871;28;47110;-76
2022/03/21 06:55:38;;;;;;;;;64.00;49.25;;;;;;;;5072973;28;45569;-77
2022/03/21 06:58:03;;;;;;;;;66.50;52.00;;;;;;;;5073490;28;45364;-76
2022/03/21 07:00:29;;;;;;;;;66.50;51.25;;;;;;;;5072566;28;45291;-78
2022/03/21 07:02:54;;;;;;;;;70.67;55.00;;;;;;;;5072620;28;47155;-78
2022/03/21 07:05:20;;;;;;;;;65.50;51.50;;;;;;;;5072555;28;45165;-76
2022/03/21 07:07:47;;;;;;;;;66.50;48.25;;;;;;;;5054316;28;45612;-78
2022/03/21 07:10:12;;;;;;;;;65.25;50.00;;;;;;;;5072671;28;45466;-76
2022/03/21 07:12:38;;;;;;;;;64.00;49.25;;;;;;;;5071902;28;46272;-78
2022/03/21 07:15:04;;;;;;;;;65.25;47.25;;;;;;;;5054172;28;45548;-78
2022/03/21 07:17:29;;;;;;;;;67.75;52.75;;;;;;;;5072960;28;45336;-78
2022/03/21 07:19:54;;;;;;;;;65.75;50.00;;;;;;;;5072193;28;45502;-78
2022/03/21 07:22:19;;;;;;;;;64.50;49.50;;;;;;;;5074075;28;45488;-79
2022/03/21 07:24:44;;;;;;;;;66.25;49.50;;;;;;;;5074760;28;45292;-78
2022/03/21 07:27:11;;;;;;;;;60.25;48.00;;;;;;;;5076146;28;45398;-77
2022/03/21 07:29:37;;;;;;;;;64.25;49.00;;;;;;;;5075957;28;45421;-78
2022/03/21 07:32:03;;;;;;;;;61.25;49.75;;;;;;;;5076210;28;46976;-77
2022/03/21 07:34:28;;;;;;;;;60.00;48.00;;;;;;;;5075551;28;45321;-75
2022/03/21 07:36:54;;;;;;;;;64.00;50.00;;;;;;;;5075860;28;45434;-75
2022/03/21 07:39:19;;;;;;;;;64.75;49.00;;;;;;;;5075490;28;45397;-75
2022/03/21 07:41:45;;;;;;;;;57.75;47.25;;;;;;;;5074755;28;46399;-76
2022/03/21 07:44:10;;;;;;;;;62.50;48.25;;;;;;;;5075053;28;45601;-78
2022/03/21 07:49:19;;;;;;;;;54.50;44.00;;;;;;;;5075426;28;45582;-79
2022/03/21 07:51:45;;;;;;;;;61.25;47.75;;;;;;;;5075096;28;45478;-79
2022/03/21 07:54:11;;;;;;;;;58.25;47.00;;;;;;;;5075327;28;45424;-78
2022/03/21 07:56:37;;;;;;;;;59.50;46.50;;;;;;;;5075256;28;45452;-78
2022/03/21 07:59:03;;;;;;;;;56.50;46.00;;;;;;;;5075597;28;45568;-77
2022/03/21 08:01:29;;;;;;;;;58.25;47.00;;;;;;;;5075151;28;45582;-73
2022/03/21 08:03:56;;;;;;;;;49.25;40.25;;;;;;;;5075524;28;45389;-78
2022/03/21 08:06:21;;;;;;;;;41.75;38.00;;;;;;;;5075125;28;45580;-77
2022/03/21 08:08:49;;;;;;;;;53.50;42.00;;;;;;;;5075053;28;45313;-78
2022/03/21 08:11:14;;;;;;;;;50.00;38.50;;;;;;;;5075140;28;47096;-79
2022/03/21 08:13:40;;;;;;;;;49.00;38.50;;;;;;;;5075725;28;45232;-78
2022/03/21 08:16:05;;;;;;;;;48.75;40.00;;;;;;;;5075525;28;45284;-78
2022/03/21 08:18:30;;;;;;;;;46.25;38.25;;;;;;;;5074723;28;45587;-77
2022/03/21 08:20:56;;;;;;;;;51.00;40.00;;;;;;;;5074304;28;46593;-76
2022/03/21 08:23:21;;;;;;;;;51.50;42.00;;;;;;;;5074866;28;45547;-78
2022/03/21 08:25:46;;;;;;;;;53.50;42.75;;;;;;;;5075073;28;45331;-79
2022/03/21 08:28:12;;;;;;;;;47.00;38.50;;;;;;;;5076136;28;45546;-78
2022/03/21 08:30:38;;;;;;;;;50.00;41.00;;;;;;;;5074848;28;47177;-77
2022/03/21 08:33:04;;;;;;;;;49.00;39.50;;;;;;;;5074423;28;45453;-75
2022/03/21 08:35:32;;;;;;;;;52.00;40.25;;;;;;;;5074886;28;45749;-78
2022/03/21 08:37:58;;;;;;;;;51.25;42.00;;;;;;;;5059533;28;45405;-77
2022/03/21 08:40:23;;;;;;;;;50.00;39.75;;;;;;;;5070982;28;47695;-76
2022/03/21 08:42:48;;;;;;;;;51.50;40.25;;;;;;;;5074579;28;45311;-78
2022/03/21 08:45:15;;;;;;;;;48.50;40.00;;;;;;;;5053412;28;45393;-78
2022/03/21 08:47:40;;;;;;;;;48.50;37.75;;;;;;;;5074558;28;45371;-78
2022/03/21 08:50:08;;;;;;;;;51.75;42.00;;;;;;;;5074637;28;46419;-78
2022/03/21 08:52:34;;;;;;;;;50.00;40.25;;;;;;;;5074350;28;45460;-78
2022/03/21 08:54:59;;;;;;;;;47.00;38.75;;;;;;;;5074861;28;45460;-78
2022/03/21 08:57:24;;;;;;;;;46.00;37.75;;;;;;;;5074869;28;45726;-78
2022/03/21 08:59:52;;;;;;;;;46.50;37.50;;;;;;;;5074313;28;46897;-78
2022/03/21 09:02:18;;;;;;;;;44.75;37.75;;;;;;;;5074080;27;45349;-78
2022/03/21 09:04:44;;;;;;;;;47.50;39.00;;;;;;;;5074059;28;45313;-78
2022/03/21 09:07:09;;;;;;;;;40.50;34.50;;;;;;;;5075383;28;45293;-78
2022/03/21 09:09:34;;;;;;;;;42.50;37.75;;;;;;;;5074489;28;46506;-78
2022/03/21 09:11:59;;;;;;;;;44.00;37.75;;;;;;;;5074456;27;45289;-76
2022/03/21 09:14:25;;;;;;;;;34.00;30.25;;;;;;;;5074546;28;45508;-78
2022/03/21 09:16:52;;;;;;;;;46.00;36.50;;;;;;;;5074361;28;45481;-76
2022/03/21 09:19:18;;;;;;;;;33.25;32.75;;;;;;;;5075108;28;46093;-77
2022/03/21 09:21:44;;;;;;;;;43.50;36.50;;;;;;;;5075565;28;45466;-79
2022/03/21 09:24:10;;;;;;;;;49.75;38.75;;;;;;;;5074674;27;45425;-77
2022/03/21 09:26:36;;;;;;;;;40.50;34.00;;;;;;;;5074500;27;45481;-77
2022/03/21 09:29:03;;;;;;;;;46.75;37.25;;;;;;;;5074094;28;45377;-77
2022/03/21 09:31:28;;;;;;;;;39.50;34.25;;;;;;;;5074179;27;45292;-78
2022/03/21 09:33:54;;;;;;;;;45.50;37.25;;;;;;;;5073279;28;45380;-76
2022/03/21 09:36:19;;;;;;;;;34.50;31.25;;;;;;;;5073584;27;45383;-77
2022/03/21 09:38:45;;;;;;;;;38.75;34.50;;;;;;;;5073505;28;46381;-77
2022/03/21 09:41:12;;;;;;;;;34.50;29.75;;;;;;;;5074001;28;45354;-78
2022/03/21 09:43:39;;;;;;;;;45.50;37.50;;;;;;;;5074111;27;45510;-78
2022/03/21 09:46:06;;;;;;;;;34.75;31.25;;;;;;;;5074070;28;45595;-77
2022/03/21 09:48:33;;;;;;;;;39.25;33.00;;;;;;;;5073599;28;45808;-79
2022/03/21 09:51:00;;;;;;;;;32.50;30.25;;;;;;;;5073126;27;45694;-77
2022/03/21 09:53:28;;;;;;;;;25.00;21.00;;;;;;;;5073746;28;45295;-79
2022/03/21 09:55:53;;;;;;;;;33.50;31.00;;;;;;;;5073873;27;45340;-78
2022/03/21 09:58:20;;;;;;;;;35.00;30.50;;;;;;;;5073969;28;46464;-78
2022/03/21 10:00:47;;;;;;;;;26.75;23.00;;;;;;;;5073660;28;45328;-77
2022/03/21 10:03:12;;;;;;;;;30.75;26.50;;;;;;;;5073622;28;45510;-78
2022/03/21 10:05:42;;;;;;;;;25.75;23.25;;;;;;;;5073350;28;45261;-77
2022/03/21 10:08:11;;;;;;;;;19.00;17.75;;;;;;;;5073423;28;47266;-77
2022/03/21 10:10:36;;;;;;;;;18.50;17.50;;;;;;;;5074114;28;45365;-78
2022/03/21 10:13:02;;;;;;;;;37.75;33.25;;;;;;;;5073643;28;45283;-79
2022/03/21 10:15:28;;;;;;;;;38.75;34.75;;;;;;;;5073447;28;45265;-78
2022/03/21 10:18:07;;;;;;;;;32.50;29.75;;;;;;;;5073512;28;47454;-78
2022/03/21 10:20:33;;;;;;;;;19.50;18.00;;;;;;;;5073488;28;45374;-78
2022/03/21 10:23:13;;;;;;;;;31.50;30.00;;;;;;;;5073990;28;45618;-74
2022/03/21 10:25:38;;;;;;;;;24.00;20.50;;;;;;;;5071324;28;45454;-78
2022/03/21 10:28:03;;;;;;;;;22.25;20.50;;;;;;;;5073487;28;46161;-78
2022/03/21 10:30:29;;;;;;;;;19.75;19.75;;;;;;;;5073153;28;45273;-77
2022/03/21 10:32:56;;;;;;;;;24.00;19.25;;;;;;;;5072737;28;45499;-77
2022/03/21 10:35:31;;;;;;;;;24.00;19.50;;;;;;;;5073217;28;45468;-77
2022/03/21 10:37:58;;;;;;;;;23.75;22.00;;;;;;;;5056852;28;45790;-78
2022/03/21 10:40:27;;;;;;;;;18.75;16.75;;;;;;;;5074020;28;45640;-77
2022/03/21 10:42:55;;;;;;;;;22.75;20.00;;;;;;;;5072684;28;45320;-78
2022/03/21 10:45:25;;;;;;;;;16.25;15.50;;;;;;;;5072602;28;45536;-78
2022/03/21 10:47:51;;;;;;;;;19.25;18.00;;;;;;;;5072164;28;47385;-78
2022/03/21 10:50:27;;;;;;;;;19.50;16.50;;;;;;;;5072728;28;45385;-78
2022/03/21 10:53:11;;;;;;;;;19.00;18.75;;;;;;;;5073266;28;45252;-78
2022/03/21 10:55:36;;;;;;;;;21.50;20.00;;;;;;;;5068199;28;45829;-78
2022/03/21 10:58:02;;;;;;;;;20.75;19.75;;;;;;;;5070369;28;46665;-78
2022/03/21 11:00:28;;;;;;;;;16.50;16.25;;;;;;;;5073433;28;45489;-78
2022/03/21 11:03:00;;;;;;;;;20.50;17.75;;;;;;;;5075517;28;45506;-78
2022/03/21 11:05:26;;;;;;;;;15.75;14.75;;;;;;;;5075791;28;45601;-80
2022/03/21 11:07:53;;;;;;;;;17.00;16.50;;;;;;;;5075787;28;46301;-78
2022/03/21 11:10:19;;;;;;;;;20.00;18.75;;;;;;;;5077201;28;45315;-78
2022/03/21 11:12:47;;;;;;;;;20.00;18.25;;;;;;;;5076992;28;45300;-79
2022/03/21 11:15:13;;;;;;;;;14.50;12.75;;;;;;;;5076177;28;45509;-80
2022/03/21 11:17:40;;;;;;;;;16.00;13.50;;;;;;;;5076247;28;46088;-80
2022/03/21 11:20:06;;;;;;;;;17.25;15.00;;;;;;;;5076680;28;45570;-80
2022/03/21 11:22:32;;;;;;;;;5.75;4.75;;;;;;;;5076641;28;45540;-81
2022/03/21 11:25:04;;;;;;;;;13.00;12.75;;;;;;;;5075541;28;45465;-82
2022/03/21 11:27:48;;;;;;;;;16.25;15.75;;;;;;;;5079192;28;47510;-79
2022/03/21 11:30:32;;;;;;;;;15.00;13.25;;;;;;;;5080259;28;45513;-81
2022/03/21 11:32:57;;;;;;;;;14.00;12.25;;;;;;;;5057890;28;45560;-79
2022/03/21 11:35:28;;;;;;;;;13.25;12.00;;;;;;;;5079325;28;45485;-80
2022/03/21 11:37:55;;;;;;;;;12.25;12.25;;;;;;;;5076476;28;46224;-79
2022/03/21 11:40:34;;;;;;;;;13.75;12.75;;;;;;;;5076007;28;45237;-80
2022/03/21 11:43:14;;;;;;;;;11.00;11.00;;;;;;;;5076081;28;45416;-81
2022/03/21 11:45:40;;;;;;;;;16.25;13.75;;;;;;;;5075582;28;45433;-79
2022/03/21 11:48:17;;;;;;;;;14.25;11.75;;;;;;;;5075557;28;45455;-80
2022/03/21 11:50:42;;;;;;;;;13.00;13.00;;;;;;;;5076250;28;45551;-81
2022/03/21 11:53:08;;;;;;;;;13.75;12.75;;;;;;;;5075897;28;45482;-81
2022/03/21 11:55:41;;;;;;;;;20.75;18.50;;;;;;;;5075342;28;45463;-79
2022/03/21 11:58:21;;;;;;;;;22.25;20.25;;;;;;;;5076218;28;45332;-79
2022/03/21 12:01:03;;;;;;;;;15.75;14.75;;;;;;;;5076007;28;45503;-80
2022/03/21 12:03:28;;;;;;;;;19.00;17.50;;;;;;;;5074926;28;45459;-80
2022/03/21 12:05:53;;;;;;;;;11.00;7.75;;;;;;;;5075955;28;45920;-80
2022/03/21 12:08:35;;;;;;;;;11.00;10.00;;;;;;;;5076063;28;46009;-83
2022/03/21 12:11:00;;;;;;;;;9.00;8.75;;;;;;;;5060208;27;45305;-83
2022/03/21 12:13:25;;;;;;;;;16.00;15.50;;;;;;;;5076134;28;45338;-82
2022/03/21 12:15:51;;;;;;;;;10.50;10.50;;;;;;;;5075669;28;45269;-81
2022/03/21 12:18:17;;;;;;;;;17.50;16.00;;;;;;;;5075404;28;47868;-81
2022/03/21 12:20:46;;;;;;;;;14.75;13.75;;;;;;;;5075924;28;45584;-82
2022/03/21 12:23:15;;;;;;;;;10.00;10.00;;;;;;;;5076012;28;45391;-82
2022/03/21 12:25:51;;;;;;;;;11.25;10.75;;;;;;;;5075458;28;45407;-81
2022/03/21 12:28:16;;;;;;;;;17.25;16.25;;;;;;;;5075325;28;46303;-82
2022/03/21 12:30:41;;;;;;;;;11.50;11.50;;;;;;;;5075665;28;45288;-82
2022/03/21 12:33:09;;;;;;;;;12.75;12.75;;;;;;;;5054477;28;45588;-83
2022/03/21 12:35:35;;;;;;;;;14.50;14.50;;;;;;;;5074808;28;45414;-81
2022/03/21 12:38:00;;;;;;;;;15.00;13.50;;;;;;;;5074259;28;45381;-81
2022/03/21 12:40:26;;;;;;;;;14.25;11.50;;;;;;;;5075558;28;45418;-80
2022/03/21 12:42:51;;;;;;;;;16.25;13.00;;;;;;;;5075170;28;45381;-81
2022/03/21 12:45:17;;;;;;;;;11.00;11.00;;;;;;;;5076114;28;45348;-82
2022/03/21 12:47:43;;;;;;;;;13.75;13.00;;;;;;;;5075304;28;46189;-83
2022/03/21 12:50:09;;;;;;;;;10.25;9.00;;;;;;;;5074773;28;45481;-83
2022/03/21 12:52:34;;;;;;;;;12.50;12.00;;;;;;;;5075815;28;45271;-84
2022/03/21 12:55:00;;;;;;;;;14.00;12.75;;;;;;;;5075186;28;45499;-81
2022/03/21 12:57:25;;;;;;;;;8.50;8.50;;;;;;;;5074804;28;46162;-80
2022/03/21 12:59:51;;;;;;;;;12.75;11.25;;;;;;;;5076772;28;45445;-79
2022/03/21 13:02:23;;;;;;;;;8.50;5.75;;;;;;;;5076197;28;45457;-79
2022/03/21 13:10:36;;;;;;;;;15.25;13.50;;;;;;;;5075620;28;45509;-80
2022/03/21 13:13:01;;;;;;;;;16.50;16.25;;;;;;;;5074006;28;45411;-80
2022/03/21 13:15:30;;;;;;;;;14.50;12.25;;;;;;;;5074303;28;45454;-80
2022/03/21 13:18:01;;;;;;;;;16.25;13.50;;;;;;;;5073672;28;46156;-81
2022/03/21 13:20:29;;;;;;;;;13.75;13.50;;;;;;;;5073289;28;45566;-81
2022/03/21 13:22:55;;;;;;;;;19.25;17.00;;;;;;;;5074304;28;45358;-80
2022/03/21 13:25:29;;;;;;;;;16.50;16.50;;;;;;;;5074926;28;45268;-80
2022/03/21 13:28:07;;;;;;;;;25.50;24.25;;;;;;;;5074286;28;46110;-80
2022/03/21 13:30:34;;;;;;;;;20.25;17.25;;;;;;;;5074561;28;45403;-81
2022/03/21 13:32:59;;;;;;;;;17.50;17.50;;;;;;;;5074687;28;45460;-80
2022/03/21 13:35:24;;;;;;;;;15.75;14.75;;;;;;;;5073371;28;45400;-80
2022/03/21 13:38:03;;;;;;;;;16.50;16.50;;;;;;;;5074144;28;46453;-79
2022/03/21 13:40:29;;;;;;;;;18.75;16.75;;;;;;;;5071396;28;45344;-80
2022/03/21 13:42:54;;;;;;;;;14.00;14.00;;;;;;;;5074747;28;45389;-81
2022/03/21 13:45:19;;;;;;;;;14.25;13.00;;;;;;;;5074021;28;45422;-78
2022/03/21 13:47:46;;;;;;;;;16.25;14.75;;;;;;;;5074032;28;47207;-80
2022/03/21 13:50:11;;;;;;;;;15.00;13.25;;;;;;;;5073962;28;45402;-79
2022/03/21 13:52:48;;;;;;;;;14.75;14.75;;;;;;;;5055671;28;45414;-79
2022/03/21 13:55:15;;;;;;;;;13.75;12.75;;;;;;;;5073366;28;45366;-80
2022/03/21 13:57:46;;;;;;;;;16.00;16.00;;;;;;;;5073874;28;46325;-80
2022/03/21 14:00:12;;;;;;;;;14.00;14.00;;;;;;;;5073886;28;45322;-81
2022/03/21 14:02:38;;;;;;;;;15.25;13.75;;;;;;;;5073629;28;45938;-79
2022/03/21 14:05:11;;;;;;;;;12.75;12.25;;;;;;;;5073516;28;45489;-81
2022/03/21 14:07:37;;;;;;;;;16.75;15.50;;;;;;;;5074024;28;45515;-81
2022/03/21 14:10:19;;;;;;;;;15.00;15.00;;;;;;;;5074105;28;45339;-80
2022/03/21 14:12:49;;;;;;;;;15.75;13.75;;;;;;;;5073866;28;45476;-81
2022/03/21 14:15:14;;;;;;;;;14.50;13.00;;;;;;;;5073477;28;45690;-80
2022/03/21 14:17:40;;;;;;;;;13.50;12.50;;;;;;;;5073465;28;46228;-80
2022/03/21 14:20:06;;;;;;;;;13.50;12.75;;;;;;;;5073527;28;45382;-80
2022/03/21 14:22:31;;;;;;;;;9.00;7.75;;;;;;;;5074366;28;45489;-80
2022/03/21 14:24:56;;;;;;;;;10.50;8.00;;;;;;;;5074030;28;45547;-82
2022/03/21 14:27:21;;;;;;;;;12.50;11.00;;;;;;;;5072745;28;46161;-81
2022/03/21 14:29:47;;;;;;;;;14.25;14.00;;;;;;;;5073163;28;45618;-79
2022/03/21 14:32:12;;;;;;;;;10.75;10.75;;;;;;;;5072332;28;45445;-80
2022/03/21 14:34:37;;;;;;;;;11.50;11.50;;;;;;;;5073406;28;45470;-82
2022/03/21 14:37:02;;;;;;;;;13.75;13.75;;;;;;;;5074045;28;45392;-81
2022/03/21 14:39:27;;;;;;;;;11.25;10.25;;;;;;;;5072757;28;45448;-81
2022/03/21 14:41:53;;;;;;;;;13.25;12.75;;;;;;;;5054198;28;45390;-80
2022/03/21 14:44:23;;;;;;;;;12.00;11.00;;;;;;;;5073677;28;45391;-80